Latest Weather Observations for Mount Nowa Nowa

IDV60801

Issued at 7:02 pm EDT Thursday 17 October 2019 (issued every 10 minutes, with the page automatically refreshed every 10 minutes)

About weather observations | Map of weather stations | Latest weather observations for VIC | Other Formats
Station Details ID: 084144 Name: MOUNT NOWA NOWA Lat: -37.69 Lon: 148.09 Height: 350.0 m
Data from the previous 72 hours. | See also: Recent months at Mount Nowa Nowa
Date/Time
EDT
Temp
°C
App
Temp
°C
Dew
Point
°C
Rel
Hum
%
Delta-T
°C
Wind Press
QNH
hPa
Press
MSL
hPa
Rain since
9am
mm
Dir  Spd
km/h
Gust
km/h
Spd
kts
Gust
kts
17/07:00pm 8.9 6.2 5.5 79 1.6 W 9 24 5 13 - - 3.0
17/06:30pm 9.3 6.6 5.7 78 1.7 W 9 13 5 7 - - 3.0
17/06:00pm 9.6 7.3 5.6 76 1.9 W 7 15 4 8 - - 3.0
17/05:30pm 8.3 5.7 6.1 86 1.0 W 9 13 5 7 - - 3.0
17/05:00pm 8.8 3.8 4.8 76 1.8 W 20 54 11 29 - - 2.8
17/04:30pm 11.5 7.5 4.7 63 3.1 W 15 32 8 17 - - 2.6
17/04:00pm 13.0 9.5 5.4 60 3.6 WSW 13 26 7 14 - - 2.6
17/03:30pm 12.0 7.6 4.5 60 3.5 WSW 17 37 9 20 - - 2.6
17/03:00pm 13.4 9.7 6.5 63 3.4 WSW 15 39 8 21 - - 2.6
17/02:30pm 12.1 9.2 8.0 76 2.0 WSW 13 28 7 15 - - 2.6
17/02:00pm 9.1 6.7 7.2 88 0.9 W 9 26 5 14 - - 2.6
17/01:30pm 7.8 5.1 5.8 87 0.9 W 9 17 5 9 - - 2.4
17/01:00pm 12.4 9.8 6.2 66 3.0 WSW 9 17 5 9 - - 1.0
17/12:30pm 11.5 9.9 8.7 83 1.4 W 7 15 4 8 - - 1.0
17/12:00pm 11.0 10.0 8.9 87 1.1 WSW 4 11 2 6 - - 1.0
17/11:30am 9.3 7.7 8.2 93 0.5 WSW 6 9 3 5 - - 1.0
17/11:00am 7.4 5.0 7.0 97 0.2 W 9 19 5 10 - - 1.0
17/10:30am 7.4 4.5 6.5 94 0.4 W 11 19 6 10 - - 1.0
17/10:00am 8.8 4.6 5.5 80 1.5 WSW 17 33 9 18 - - 0.0
17/09:30am 9.7 6.5 7.0 83 1.3 WSW 13 33 7 18 - - 0.0
17/09:00am 11.2 9.2 6.9 75 2.1 WNW 7 13 4 7 - - 4.8
17/08:30am 9.1 6.4 7.5 90 0.8 WNW 11 17 6 9 - - 4.8
17/08:00am 10.8 8.2 7.7 81 1.5 WNW 11 19 6 10 - - 4.8
17/07:30am 11.1 8.8 7.6 79 1.7 WNW 9 15 5 8 - - 4.8
17/07:00am 10.5 7.1 7.6 82 1.4 NW 15 22 8 12 - - 4.8
17/06:30am 11.0 7.5 7.3 78 1.8 NNW 15 24 8 13 - - 4.4
17/06:00am 10.2 7.9 7.4 83 1.4 N 9 15 5 8 - - 4.4
17/05:30am 10.4 7.4 7.5 82 1.4 N 13 20 7 11 - - 4.4
17/05:00am 11.1 8.8 7.6 79 1.7 N 9 13 5 7 - - 4.4
17/04:30am 10.5 8.6 7.7 83 1.4 N 7 13 4 7 - - 4.4
17/04:00am 10.3 8.4 7.7 84 1.3 N 7 13 4 7 - - 4.4
17/03:30am 10.7 9.1 7.8 82 1.4 WNW 6 9 3 5 - - 4.4
17/03:00am 10.8 8.9 7.7 81 1.5 NW 7 11 4 6 - - 4.4
17/02:30am 10.9 9.2 7.6 80 1.6 NW 6 9 3 5 - - 4.4
17/02:00am 10.6 8.9 7.5 81 1.5 NW 6 9 3 5 - - 4.4
17/01:30am 10.6 9.3 7.7 82 1.4 WNW 4 7 2 4 - - 4.4
17/01:00am 10.6 8.4 7.8 83 1.4 W 9 11 5 6 - - 4.4
17/12:30am 10.6 8.8 7.8 83 1.4 W 7 11 4 6 - - 4.4
17/12:00am 10.6 9.0 8.0 84 1.3 WNW 6 9 3 5 - - 4.4
 
Date/Time
EDT
Temp
°C
App
Temp
°C
Dew
Point
°C
Rel
Hum
%
Delta-T
°C
Wind Press
QNH
hPa
Press
MSL
hPa
Rain since
9am
mm
Dir  Spd
km/h
Gust
km/h
Spd
kts
Gust
kts
16/11:30pm 10.5 8.3 7.9 84 1.3 WNW 9 11 5 6 - - 4.4
16/11:00pm 10.5 8.7 8.1 85 1.2 WNW 7 11 4 6 - - 4.4
16/10:30pm 10.0 8.3 8.4 90 0.8 W 7 11 4 6 - - 4.4
16/10:00pm 10.4 8.4 8.5 88 0.9 W 9 17 5 9 - - 4.4
16/09:30pm 10.8 8.5 8.9 88 1.0 WSW 11 19 6 10 - - 4.4
16/09:00pm 12.3 10.4 10.4 88 1.0 W 11 26 6 14 - - 4.4
16/08:30pm 14.3 13.0 9.9 75 2.3 N 7 9 4 5 - - 4.4
16/08:00pm 13.3 12.4 10.7 84 1.4 ENE 6 7 3 4 - - 4.4
16/07:30pm 13.2 12.5 11.3 88 1.0 ENE 6 7 3 4 - - 4.4
16/07:00pm 12.8 12.2 12.2 96 0.3 ESE 7 11 4 6 - - 4.4
16/06:30pm 13.0 12.9 12.2 95 0.4 ESE 4 7 2 4 - - 4.4
16/06:00pm 13.5 13.6 12.6 94 0.5 ENE 4 6 2 3 - - 4.4
16/05:30pm 13.4 12.9 12.0 91 0.8 N 6 11 3 6 - - 4.4
16/05:00pm 13.4 13.7 12.1 92 0.7 NE 2 7 1 4 - - 4.4
16/04:30pm 13.1 13.2 11.5 90 0.9 NNE 2 7 1 4 - - 4.4
16/04:00pm 12.3 10.7 11.4 94 0.5 NW 11 20 6 11 - - 4.4
16/03:30pm 12.1 10.3 10.8 92 0.7 NNW 11 19 6 10 - - 4.4
16/03:00pm 11.9 10.9 11.0 94 0.5 NW 7 13 4 7 - - 4.4
16/02:30pm 11.7 10.5 10.4 92 0.7 NNW 7 11 4 6 - - 4.4
16/02:00pm 11.8 11.2 10.4 91 0.7 W 4 11 2 6 - - 3.6
16/01:30pm 12.3 11.9 11.2 93 0.6 SW 4 6 2 3 - - 1.8
16/01:00pm 12.9 12.0 10.6 86 1.2 SE 6 11 3 6 - - 1.0
16/12:30pm 13.5 12.9 11.6 88 1.0 ESE 6 13 3 7 - - 1.0
16/12:00pm 12.6 12.6 11.0 90 0.9 ESE 2 6 1 3 - - 1.0
16/11:30am 12.4 12.5 10.1 86 1.2 CALM 0 4 0 2 - - 0.6
16/11:00am 12.8 12.0 8.1 73 2.4 ENE 2 6 1 3 - - 0.0
16/10:30am 13.3 11.8 8.6 73 2.4 ESE 6 11 3 6 - - 0.0
16/10:00am 13.3 11.8 8.4 72 2.5 ESE 6 11 3 6 - - 0.0
16/09:30am 12.4 10.9 8.5 77 2.0 ESE 6 9 3 5 - - 0.0
16/09:00am 12.1 10.5 8.2 77 2.0 ESE 6 9 3 5 - - 0.0
16/08:30am 11.5 9.8 8.2 80 1.6 E 7 11 4 6 - - 0.0
16/08:00am 12.0 10.9 8.3 78 1.9 E 4 6 2 3 - - 0.0
16/07:30am 11.9 10.3 8.0 77 1.9 E 6 9 3 5 - - 0.0
16/07:00am 11.5 10.1 7.2 75 2.1 ENE 4 9 2 5 - - 0.0
16/06:30am 11.0 9.2 7.3 78 1.8 ENE 6 13 3 7 - - 0.0
16/06:00am 10.9 9.2 7.4 79 1.7 NE 6 11 3 6 - - 0.0
16/05:30am 11.0 9.2 7.3 78 1.8 NNE 6 15 3 8 - - 0.0
16/05:00am 11.1 9.3 7.2 77 1.9 N 6 9 3 5 - - 0.0
16/04:30am 11.0 9.3 7.5 79 1.7 N 6 9 3 5 - - 0.0
16/04:00am 10.9 9.0 7.6 80 1.6 N 7 13 4 7 - - 0.0
16/03:30am 10.8 9.0 7.9 82 1.4 N 7 13 4 7 - - 0.0
16/03:00am 10.6 8.8 7.8 83 1.4 N 7 13 4 7 - - 0.0
16/02:30am 10.7 9.0 7.6 81 1.5 N 6 11 3 6 - - 0.0
16/02:00am 10.6 8.7 7.5 81 1.5 N 7 13 4 7 - - 0.0
16/01:30am 10.7 8.8 7.6 81 1.5 NNE 7 19 4 10 - - 0.0
16/01:00am 10.7 8.8 7.4 80 1.6 NNW 7 13 4 7 - - 0.0
16/12:30am 10.6 8.9 7.5 81 1.5 NW 6 7 3 4 - - 0.0
16/12:00am 10.5 8.8 7.6 82 1.4 NW 6 7 3 4 - - 0.0
 
Date/Time
EDT
Temp
°C
App
Temp
°C
Dew
Point
°C
Rel
Hum
%
Delta-T
°C
Wind Press
QNH
hPa
Press
MSL
hPa
Rain since
9am
mm
Dir  Spd
km/h
Gust
km/h
Spd
kts
Gust
kts
15/11:30pm 10.4 9.2 8.0 85 1.2 NW 4 6 2 3 - - 0.0
15/11:00pm 10.4 9.2 8.2 86 1.1 NW 4 6 2 3 - - 0.0
15/10:30pm 10.4 10.0 8.2 86 1.1 CALM 0 0 0 0 - - 0.0
15/10:00pm 10.5 10.1 8.1 85 1.2 CALM 0 0 0 0 - - 0.0
15/09:30pm 10.6 10.2 8.2 85 1.2 CALM 0 0 0 0 - - 0.0
15/09:00pm 10.7 10.0 8.5 86 1.1 S 2 4 1 2 - - 0.0
15/08:30pm 10.8 10.1 8.6 86 1.1 S 2 4 1 2 - - 0.0
15/08:00pm 10.8 9.8 8.9 88 1.0 SSW 4 6 2 3 - - 0.0
15/07:30pm 10.9 10.3 8.8 87 1.1 S 2 4 1 2 - - 0.0
15/07:00pm 11.0 10.8 8.9 87 1.1 CALM 0 4 0 2 - - 0.0
15/06:30pm 11.1 10.9 9.0 87 1.1 CALM 0 4 0 2 - - 0.0
15/06:00pm 11.0 10.0 8.9 87 1.1 SSE 4 7 2 4 - - 0.0
15/05:30pm 11.0 10.1 9.1 88 1.0 SSE 4 11 2 6 - - 0.0
15/05:00pm 11.5 10.6 9.4 87 1.1 SSE 4 6 2 3 - - 0.0
15/04:30pm 11.7 10.3 9.4 86 1.2 SSE 7 13 4 7 - - 0.0
15/04:00pm 12.1 10.7 9.5 84 1.3 SSE 7 15 4 8 - - 0.0
15/03:30pm 13.0 11.9 10.0 82 1.6 SSE 6 9 3 5 - - 0.0
15/03:00pm 12.9 12.2 10.1 83 1.5 SSE 4 11 2 6 - - 0.0
15/02:30pm 12.9 11.8 10.1 83 1.5 S 6 13 3 7 - - 0.0
15/02:00pm 14.0 13.0 10.4 79 1.9 S 6 9 3 5 - - 0.0
15/01:30pm 13.5 12.6 10.5 82 1.6 SSE 6 13 3 7 - - 0.0
15/01:00pm 13.6 13.0 10.4 81 1.7 S 4 7 2 4 - - 0.0
15/12:30pm 14.4 13.5 10.6 78 2.0 SSE 6 11 3 6 - - 0.0
15/12:00pm 13.9 12.6 9.3 74 2.4 SSW 6 9 3 5 - - 0.0
15/11:30am 13.9 13.0 9.3 74 2.4 SSW 4 7 2 4 - - 0.0
15/11:00am 13.4 12.9 9.3 76 2.1 WSW 2 6 1 3 - - 0.0
15/10:30am 12.8 11.9 9.3 79 1.8 SW 4 7 2 4 - - 0.0
15/10:00am 12.8 12.0 9.6 81 1.7 SW 4 7 2 4 - - 0.0
15/09:30am 12.0 11.1 9.4 84 1.3 WSW 4 6 2 3 - - 0.0
15/09:00am 11.9 11.1 9.5 85 1.2 WSW 4 7 2 4 - - 0.0
15/08:30am 11.4 10.1 9.3 87 1.1 W 6 9 3 5 - - 0.0
15/08:00am 11.0 9.7 9.1 88 1.0 WSW 6 15 3 8 - - 0.0
15/07:30am 10.7 9.7 9.0 89 0.9 W 4 6 2 3 - - 0.0
15/07:00am 10.4 8.8 8.8 90 0.8 W 7 11 4 6 - - 0.0
15/06:30am 10.5 8.9 8.8 89 0.9 W 7 13 4 7 - - 0.0
15/06:00am 10.5 8.9 8.8 89 0.9 W 7 9 4 5 - - 0.0
15/05:30am 10.9 9.0 9.0 88 1.0 W 9 11 5 6 - - 0.0
15/05:00am 10.8 8.9 9.2 90 0.8 W 9 11 5 6 - - 0.0
15/04:30am 10.8 8.9 9.2 90 0.8 W 9 15 5 8 - - 0.0
15/04:00am 10.9 9.1 9.3 90 0.8 W 9 15 5 8 - - 0.0
15/03:30am 10.9 9.1 9.5 91 0.7 W 9 17 5 9 - - 0.0
15/03:00am 10.9 8.7 9.3 90 0.8 W 11 22 6 12 - - 0.0
15/02:30am 10.9 7.9 9.2 89 0.9 W 15 30 8 16 - - 0.0
15/02:00am 11.2 8.1 8.9 86 1.2 W 15 30 8 16 - - 0.0
15/01:30am 11.9 8.4 8.9 82 1.5 W 17 26 9 14 - - 0.0
15/01:00am 13.4 10.3 7.2 66 3.1 W 13 26 7 14 - - 0.0
15/12:30am 17.4 14.7 7.2 51 5.2 NW 11 19 6 10 - - 0.0
15/12:00am 17.5 14.7 7.0 50 5.3 NW 11 17 6 9 - - 0.0
 
Date/Time
EDT
Temp
°C
App
Temp
°C
Dew
Point
°C
Rel
Hum
%
Delta-T
°C
Wind Press
QNH
hPa
Press
MSL
hPa
Rain since
9am
mm
Dir  Spd
km/h
Gust
km/h
Spd
kts
Gust
kts
14/11:30pm 18.1 14.9 6.9 48 5.7 NNW 13 20 7 11 - - 0.0
14/11:00pm 18.3 14.8 7.1 48 5.7 NNW 15 24 8 13 - - 0.0
14/10:30pm 18.4 15.2 6.9 47 5.9 NNW 13 20 7 11 - - 0.0
14/10:00pm 18.6 16.4 7.7 49 5.7 N 9 17 5 9 - - 0.0
14/09:30pm 19.1 17.4 7.5 47 6.0 N 6 7 3 4 - - 0.0
14/09:00pm 18.2 17.0 7.9 51 5.3 E 4 6 2 3 - - 0.0
14/08:30pm 17.7 15.5 7.7 52 5.2 E 9 15 5 8 - - 0.0
14/08:00pm 17.2 14.5 7.5 53 5.0 E 11 15 6 8 - - 0.0
14/07:30pm 17.5 15.6 7.5 52 5.1 E 7 11 4 6 - - 0.0

Other formats

Comma delimited format used in spreadsheet applications
http://www.bom.gov.au/fwo/IDV60801/IDV60801.94930.axf

JavaScript Object Notation format (JSON) in row-major order
http://www.bom.gov.au/fwo/IDV60801/IDV60801.94930.json

Data quality

Most of these data are generated automatically and are frequently updated. Quality checks on data are not normally performed. It is possible for incorrect values to appear. Refer to information at About Latest Weather Observations and please check the disclaimer before using these data.